Terminal Aerodrome Forecast
Issued by NWS

Home | Current Version | Previous Version | Text Only | Print | Product List | Glossary Off
Versions: 1 2 3 4 5 6 7 8 9 10 11 12 13

000
FTUS43 KICT 271721
TAFRSL
TAF
KRSL 271721Z 2718/2818 34006KT P6SM SCT040
     FM272300 VRB03KT P6SM SKC
     FM280900 18007KT P6SM BKN080
     FM281500 23008KT P6SM SCT080=

USA.gov is the U.S. government's official web portal to all federal, state and local government web resources and services.